^^
Cohasset Weather Station Historical Data
Daily Summary for May 22, 2019 Units:  Metric    English   Both
Daily Weekly Monthly Yearly Custom
  High: Low: Average:
Temperature: 18 °C 3.9 °C 10.8 °C
Dew Point: 9.4 °C 3.7 °C 6.5 °C
Humidity: 99% 46% 77%
Wind Speed: 14.8km/h 0km/h 2.6km/h
Wind Gust: 9.3km/h - -
Wind- - South
Pressure: 1011.7 hPa 1009.7 hPa -
Precipitation: 0 mm    
Historical Graphs
 
 
Tabular Data for May 22, 2019
Time Temperature Dew Point Pressure Wind Wind Speed Wind Gust Humidity Rainfall Rate (Hourly) solar
00:04 5.5 °C 5.3 °C 1010 hPa Calm     99% 0 mm WeatherDisplay:10.37 W/m2
00:09 5.3 °C 5.1 °C 1009.7 hPa Calm     99% 0 mm WeatherDisplay:10.37 W/m2
00:14 5.2 °C 4.9 °C 1009.7 hPa Calm     98% 0 mm WeatherDisplay:10.37 W/m2
00:19 5.1 °C 4.8 °C 1009.7 hPa Calm     98% 0 mm WeatherDisplay:10.37 W/m2
00:24 5 °C 4.7 °C 1009.7 hPa Calm     98% 0 mm WeatherDisplay:10.37 W/m2
00:29 5 °C 4.7 °C 1010 hPa Calm     98% 0 mm WeatherDisplay:10.37 W/m2
00:34 4.9 °C 4.4 °C 1010 hPa Calm     97% 0 mm WeatherDisplay:10.37 W/m2
00:39 4.9 °C 4.6 °C 1010 hPa Calm     98% 0 mm WeatherDisplay:10.37 W/m2
00:44 4.8 °C 4.5 °C 1010 hPa Calm     98% 0 mm WeatherDisplay:10.37 W/m2
00:49 4.8 °C 4.5 °C 1010 hPa Calm     98% 0 mm WeatherDisplay:10.37 W/m2
00:54 4.7 °C 4.4 °C 1009.7 hPa Calm     98% 0 mm WeatherDisplay:10.37 W/m2
00:59 4.7 °C 4.6 °C 1009.7 hPa Calm     99% 0 mm WeatherDisplay:10.37 W/m2
01:04 4.6 °C 4.4 °C 1009.7 hPa Calm     99% 0 mm WeatherDisplay:10.37 W/m2
01:09 4.5 °C 4.3 °C 1009.7 hPa Calm     99% 0 mm WeatherDisplay:10.37 W/m2
01:14 4.5 °C 4.3 °C 1009.7 hPa Calm     99% 0 mm WeatherDisplay:10.37 W/m2
01:19 4.4 °C 4.2 °C 1009.7 hPa Calm     99% 0 mm WeatherDisplay:10.37 W/m2
01:24 4.3 °C 4.1 °C 1009.7 hPa Calm     99% 0 mm WeatherDisplay:10.37 W/m2
01:29 4.2 °C 4.1 °C 1010 hPa Calm     99% 0 mm WeatherDisplay:10.37 W/m2
01:34 4.2 °C 4.1 °C 1010 hPa Calm     99% 0 mm WeatherDisplay:10.37 W/m2
01:39 4.1 °C 3.9 °C 1010 hPa Calm     99% 0 mm WeatherDisplay:10.37 W/m2
01:44 4 °C 3.8 °C 1010 hPa Calm     99% 0 mm WeatherDisplay:10.37 W/m2
01:49 4 °C 3.8 °C 1010 hPa Calm     99% 0 mm WeatherDisplay:10.37 W/m2
01:54 3.9 °C 3.7 °C 1010 hPa Calm     99% 0 mm WeatherDisplay:10.37 W/m2
01:59 3.9 °C 3.7 °C 1010 hPa Calm     99% 0 mm WeatherDisplay:10.37 W/m2
02:04 3.9 °C 3.7 °C 1010 hPa Calm     99% 0 mm WeatherDisplay:10.37 W/m2
02:09 3.9 °C 3.7 °C 1010 hPa Calm     99% 0 mm WeatherDisplay:10.37 W/m2
02:14 4 °C 3.8 °C 1010 hPa Calm     99% 0 mm WeatherDisplay:10.37 W/m2
02:19 4 °C 3.8 °C 1010 hPa Calm     99% 0 mm WeatherDisplay:10.37 W/m2
02:24 4 °C 3.8 °C 1010 hPa Calm     99% 0 mm WeatherDisplay:10.37 W/m2
02:29 4 °C 3.8 °C 1010 hPa Calm     99% 0 mm WeatherDisplay:10.37 W/m2
02:34 4 °C 3.8 °C 1010 hPa Calm     99% 0 mm WeatherDisplay:10.37 W/m2
02:39 4 °C 3.8 °C 1010 hPa Calm     99% 0 mm WeatherDisplay:10.37 W/m2
02:44 4.1 °C 3.9 °C 1010 hPa Calm     99% 0 mm WeatherDisplay:10.37 W/m2
02:49 4.1 °C 3.9 °C 1010 hPa Calm     99% 0 mm WeatherDisplay:10.37 W/m2
02:54 4.1 °C 3.9 °C 1010 hPa Calm     99% 0 mm WeatherDisplay:10.37 W/m2
02:59 4.1 °C 3.9 °C 1010 hPa Calm     99% 0 mm WeatherDisplay:10.37 W/m2
03:04 4.1 °C 3.9 °C 1010 hPa Calm     99% 0 mm WeatherDisplay:10.37 W/m2
03:09 4.1 °C 3.9 °C 1010 hPa NNE 5.6 km/h 2.9 km/h 99% 0 mm WeatherDisplay:10.37 W/m2
03:14 4.1 °C 3.9 °C 1010 hPa Calm     99% 0 mm WeatherDisplay:10.37 W/m2
03:19 4.1 °C 3.9 °C 1010 hPa Calm     99% 0 mm WeatherDisplay:10.37 W/m2
03:24 4.2 °C 4.1 °C 1010 hPa Calm     99% 0 mm WeatherDisplay:10.37 W/m2
03:29 4.3 °C 4.1 °C 1010 hPa Calm     99% 0 mm WeatherDisplay:10.37 W/m2
03:34 4.4 °C 4.2 °C 1010 hPa NNE 5.6 km/h 4.2 km/h 99% 0 mm WeatherDisplay:10.37 W/m2
03:39 4.4 °C 4.2 °C 1010 hPa NW 3.5 km/h 2.3 km/h 99% 0 mm WeatherDisplay:10.37 W/m2
03:44 4.4 °C 4.2 °C 1010 hPa Calm     99% 0 mm WeatherDisplay:10.37 W/m2
03:49 4.4 °C 4.2 °C 1010 hPa NNE 3.7 km/h 1.4 km/h 99% 0 mm WeatherDisplay:10.37 W/m2
03:54 4.4 °C 4.2 °C 1010 hPa Calm     99% 0 mm WeatherDisplay:10.37 W/m2
03:59 4.4 °C 4.2 °C 1010 hPa Calm     99% 0 mm WeatherDisplay:10.37 W/m2
04:04 4.4 °C 4.2 °C 1010 hPa Calm     99% 0 mm WeatherDisplay:10.37 W/m2
04:09 4.4 °C 4.2 °C 1010 hPa Calm     99% 0 mm WeatherDisplay:10.37 W/m2
04:14 4.4 °C 4.2 °C 1010 hPa Calm     99% 0 mm WeatherDisplay:10.37 W/m2
04:19 4.4 °C 4.2 °C 1010 hPa Calm     99% 0 mm WeatherDisplay:10.37 W/m2
04:24 4.4 °C 4.2 °C 1010 hPa Calm     99% 0 mm WeatherDisplay:10.37 W/m2
04:29 4.5 °C 4.3 °C 1010 hPa NW 4.5 km/h 3.1 km/h 99% 0 mm WeatherDisplay:10.37 W/m2
04:34 4.5 °C 4.3 °C 1010 hPa Calm     99% 0 mm WeatherDisplay:10.37 W/m2
04:39 4.5 °C 4.3 °C 1010 hPa NNE 3.7 km/h   99% 0 mm WeatherDisplay:10.37 W/m2
04:44 4.6 °C 4.4 °C 1010 hPa Calm     99% 0 mm WeatherDisplay:10.37 W/m2
04:49 4.6 °C 4.4 °C 1010 hPa Calm     99% 0 mm WeatherDisplay:10.37 W/m2
04:54 4.6 °C 4.4 °C 1010 hPa Calm     99% 0 mm WeatherDisplay:10.37 W/m2
04:59 4.6 °C 4.4 °C 1010 hPa Calm     99% 0 mm WeatherDisplay:10.37 W/m2
05:04 4.6 °C 4.4 °C 1010 hPa NNE 5.6 km/h 4.7 km/h 99% 0 mm WeatherDisplay:10.37 W/m2
05:09 4.6 °C 4.4 °C 1010 hPa Calm     99% 0 mm WeatherDisplay:10.37 W/m2
05:14 4.6 °C 4.4 °C 1010 hPa Calm     99% 0 mm WeatherDisplay:10.37 W/m2
05:19 4.6 °C 4.4 °C 1010 hPa Calm     99% 0 mm WeatherDisplay:10.37 W/m2
05:24 4.6 °C 4.4 °C 1010 hPa Calm     99% 0 mm WeatherDisplay:10.37 W/m2
05:29 4.6 °C 4.4 °C 1010 hPa Calm     99% 0 mm WeatherDisplay:10.37 W/m2
05:34 4.6 °C 4.4 °C 1010 hPa Calm     99% 0 mm WeatherDisplay:10.37 W/m2
05:39 4.6 °C 4.4 °C 1010 hPa Calm     99% 0 mm WeatherDisplay:10.37 W/m2
05:44 4.6 °C 4.4 °C 1010.4 hPa Calm     99% 0 mm WeatherDisplay:10.37 W/m2
05:49 4.6 °C 4.4 °C 1010.4 hPa Calm     99% 0 mm WeatherDisplay:10.37 W/m2
05:54 4.5 °C 4.3 °C 1010.4 hPa Calm     99% 0 mm WeatherDisplay:10.37 W/m2
05:59 4.5 °C 4.3 °C 1010.4 hPa Calm     99% 0 mm WeatherDisplay:10.37 W/m2
06:04 4.5 °C 4.3 °C 1010.4 hPa Calm     99% 0 mm WeatherDisplay:10.37 W/m2
06:09 4.5 °C 4.3 °C 1010 hPa Calm     99% 0 mm WeatherDisplay:10.37 W/m2
06:14 4.6 °C 4.4 °C 1010 hPa Calm     99% 0 mm WeatherDisplay:10.37 W/m2
06:19 4.6 °C 4.4 °C 1010.4 hPa Calm     99% 0 mm WeatherDisplay:10.37 W/m2
06:24 4.6 °C 4.4 °C 1010.4 hPa Calm     99% 0 mm WeatherDisplay:10.37 W/m2
06:29 4.7 °C 4.6 °C 1010 hPa Calm     99% 0 mm WeatherDisplay:10.37 W/m2
06:34 4.7 °C 4.6 °C 1010 hPa Calm     99% 0 mm WeatherDisplay:10.37 W/m2
06:39 4.7 °C 4.6 °C 1010 hPa Calm     99% 0 mm WeatherDisplay:10.37 W/m2
06:44 4.8 °C 4.6 °C 1010.4 hPa Calm     99% 0 mm WeatherDisplay:10.37 W/m2
06:49 4.9 °C 4.7 °C 1010.4 hPa Calm     99% 0 mm WeatherDisplay:10.37 W/m2
06:54 4.9 °C 4.7 °C 1010.4 hPa Calm     99% 0 mm WeatherDisplay:10.37 W/m2
06:59 5 °C 4.8 °C 1010.4 hPa Calm     99% 0 mm WeatherDisplay:10.37 W/m2
07:04 5.1 °C 4.9 °C 1010.4 hPa Calm     99% 0 mm WeatherDisplay:10.37 W/m2
07:09 5.3 °C 4.6 °C 1010.4 hPa West 7.4 km/h 5.8 km/h 95% 0 mm WeatherDisplay:10.37 W/m2
07:14 5.7 °C 4.8 °C 1010.4 hPa Calm     94% 0 mm WeatherDisplay:10.37 W/m2
07:19 5.7 °C 5.4 °C 1010.4 hPa Calm     98% 0 mm WeatherDisplay:10.37 W/m2
07:24 5.7 °C 5.3 °C 1010.4 hPa WNW 5.6 km/h 4.8 km/h 97% 0 mm WeatherDisplay:10.37 W/m2
07:29 5.9 °C 5.4 °C 1010.4 hPa Calm     97% 0 mm WeatherDisplay:10.37 W/m2
07:34 5.9 °C 5.3 °C 1010.4 hPa Calm     96% 0 mm WeatherDisplay:10.37 W/m2
07:39 6.1 °C 5.5 °C 1010.4 hPa Calm     96% 0 mm WeatherDisplay:10.37 W/m2
07:44 6.2 °C 5.5 °C 1010.7 hPa Calm     95% 0 mm WeatherDisplay:10.37 W/m2
07:49 6.5 °C 5.6 °C 1010.7 hPa Calm     94% 0 mm WeatherDisplay:10.37 W/m2
07:54 6.8 °C 6.1 °C 1010.4 hPa Calm     95% 0 mm WeatherDisplay:10.37 W/m2
07:59 6.9 °C 6.3 °C 1010.4 hPa Calm     96% 0 mm WeatherDisplay:10.37 W/m2
08:04 7 °C 6.4 °C 1010.4 hPa Calm     96% 0 mm WeatherDisplay:10.37 W/m2
08:09 7.1 °C 6.5 °C 1010.7 hPa Calm     96% 0 mm WeatherDisplay:10.37 W/m2
08:14 7.3 °C 6.2 °C 1010.7 hPa North 4.5 km/h 5 km/h 93% 0 mm WeatherDisplay:10.37 W/m2
08:19 7.3 °C 6.6 °C 1010.4 hPa NNE 2.4 km/h 1.3 km/h 95% 0 mm WeatherDisplay:10.37 W/m2
08:24 7.4 °C 6 °C 1010.4 hPa Calm     91% 0 mm WeatherDisplay:10.37 W/m2
08:29 7.5 °C 6.6 °C 1010.7 hPa Calm     94% 0 mm WeatherDisplay:10.37 W/m2
08:34 7.7 °C 6.9 °C 1010.7 hPa Calm     95% 0 mm WeatherDisplay:10.37 W/m2
08:39 7.8 °C 6.6 °C 1010.7 hPa Calm     92% 0 mm WeatherDisplay:10.37 W/m2
08:44 8.1 °C 6.6 °C 1010.7 hPa North 3.7 km/h   90% 0 mm WeatherDisplay:10.37 W/m2
08:49 8.2 °C 6 °C 1010.7 hPa Calm     86% 0 mm WeatherDisplay:10.37 W/m2
08:54 8.4 °C 6.8 °C 1010.7 hPa Calm     90% 0 mm WeatherDisplay:10.37 W/m2
08:59 8.5 °C 6.8 °C 1010.7 hPa Calm     89% 0 mm WeatherDisplay:10.37 W/m2
09:04 8.5 °C 6.6 °C 1010.7 hPa North 2.4 km/h 0.3 km/h 88% 0 mm WeatherDisplay:10.37 W/m2
09:09 8.7 °C 6.7 °C 1010.7 hPa NNE 5.6 km/h 0.5 km/h 87% 0 mm WeatherDisplay:10.37 W/m2
09:14 8.9 °C 6.8 °C 1010.7 hPa ESE 5.6 km/h 2.6 km/h 87% 0 mm WeatherDisplay:10.37 W/m2
09:19 9.1 °C 7.2 °C 1010.7 hPa South 3.7 km/h 0.3 km/h 88% 0 mm WeatherDisplay:10.37 W/m2
09:24 9.3 °C 7.1 °C 1010.7 hPa Calm     86% 0 mm WeatherDisplay:10.37 W/m2
09:29 9.7 °C 7.7 °C 1010.7 hPa Calm     87% 0 mm WeatherDisplay:10.37 W/m2
09:34 9.9 °C 7.8 °C 1010.7 hPa Calm     87% 0 mm WeatherDisplay:10.37 W/m2
09:39 10.6 °C 7.5 °C 1010.7 hPa Calm     81% 0 mm WeatherDisplay:10.37 W/m2
09:44 11 °C 7.5 °C 1010.7 hPa Calm     79% 0 mm WeatherDisplay:10.37 W/m2
09:49 11.3 °C 7.9 °C 1010.7 hPa NW 2.4 km/h 0.3 km/h 80% 0 mm WeatherDisplay:10.37 W/m2
09:54 11.9 °C 7.6 °C 1010.7 hPa Calm     75% 0 mm WeatherDisplay:10.37 W/m2
09:59 12 °C 7.7 °C 1010.7 hPa Calm     75% 0 mm WeatherDisplay:10.37 W/m2
10:04 12.1 °C 7.8 °C 1010.7 hPa Calm     75% 0 mm WeatherDisplay:10.37 W/m2
10:09 12.3 °C 8.2 °C 1010.7 hPa WNW 4.5 km/h 3.1 km/h 76% 0 mm WeatherDisplay:10.37 W/m2
10:14 12.4 °C 8.7 °C 1010.7 hPa Calm     78% 0 mm WeatherDisplay:10.37 W/m2
10:19 12.3 °C 7.9 °C 1010.7 hPa NNE 3.7 km/h 1 km/h 75% 0 mm WeatherDisplay:10.37 W/m2
10:24 12.7 °C 8.4 °C 1010.7 hPa West 5.6 km/h 1.1 km/h 75% 0 mm WeatherDisplay:10.37 W/m2
10:29 12.8 °C 7.8 °C 1010.7 hPa West 4.5 km/h 4.5 km/h 72% 0 mm WeatherDisplay:10.37 W/m2
10:34 13.1 °C 8.8 °C 1010.7 hPa SW 3.7 km/h   75% 0 mm WeatherDisplay:10.37 W/m2
10:39 13.4 °C 8.4 °C 1010.7 hPa Calm     72% 0 mm WeatherDisplay:10.37 W/m2
10:44 13.3 °C 8.6 °C 1010.7 hPa ESE 5.6 km/h 6.8 km/h 73% 0 mm WeatherDisplay:10.37 W/m2
10:49 12.8 °C 7.8 °C 1010.7 hPa South 9.3 km/h 6.3 km/h 72% 0 mm WeatherDisplay:10.37 W/m2
10:54 13.5 °C 8.6 °C 1010.7 hPa East 7.4 km/h 2.6 km/h 72% 0 mm WeatherDisplay:10.37 W/m2
10:59 14.3 °C 8.2 °C 1010.7 hPa SE 3.7 km/h 3.4 km/h 67% 0 mm WeatherDisplay:10.37 W/m2
11:04 14.4 °C 8.8 °C 1010.7 hPa Calm     69% 0 mm WeatherDisplay:10.37 W/m2
11:09 15.1 °C 8.3 °C 1010.7 hPa West 9.3 km/h 3.9 km/h 64% 0 mm WeatherDisplay:10.37 W/m2
11:14 16.2 °C 8.7 °C 1010.7 hPa Calm     61% 0 mm WeatherDisplay:10.37 W/m2
11:19 15.8 °C 8.3 °C 1011.1 hPa Calm     61% 0 mm WeatherDisplay:10.37 W/m2
11:24 14.9 °C 8.1 °C 1011.1 hPa North 5.6 km/h 2.4 km/h 64% 0 mm WeatherDisplay:10.37 W/m2
11:29 15.2 °C 8 °C 1011.1 hPa East 2.4 km/h 1 km/h 62% 0 mm WeatherDisplay:10.37 W/m2
11:34 15.1 °C 7.7 °C 1011.1 hPa NE 7.7 km/h 1.6 km/h 61% 0 mm WeatherDisplay:10.37 W/m2
11:39 14.4 °C 7.2 °C 1011.1 hPa ENE 5.6 km/h 1.3 km/h 62% 0 mm WeatherDisplay:10.37 W/m2
11:44 14.9 °C 8.1 °C 1011.1 hPa West 4.5 km/h 3.4 km/h 64% 0 mm WeatherDisplay:10.37 W/m2
11:49 15.1 °C 7.9 °C 1011.1 hPa Calm     62% 0 mm WeatherDisplay:10.37 W/m2
11:54 15.3 °C 8.1 °C 1011.4 hPa ENE 3.7 km/h 2.7 km/h 62% 0 mm WeatherDisplay:10.37 W/m2
11:59 14.6 °C 7.7 °C 1011.4 hPa North 3.7 km/h 0.8 km/h 63% 0 mm WeatherDisplay:10.37 W/m2
12:04 15 °C 8 °C 1011.4 hPa ESE 3.7 km/h 2.3 km/h 63% 0 mm WeatherDisplay:10.37 W/m2
12:09 15.1 °C 7.7 °C 1011.4 hPa North 2.4 km/h 0.3 km/h 61% 0 mm WeatherDisplay:10.37 W/m2
12:14 14.6 °C 8.1 °C 1011.4 hPa Calm     65% 0 mm WeatherDisplay:10.37 W/m2
12:19 14.6 °C 8.1 °C 1011.7 hPa Calm     65% 0 mm WeatherDisplay:10.37 W/m2
12:24 15 °C 8.2 °C 1011.7 hPa Calm     64% 0 mm WeatherDisplay:10.37 W/m2
12:29 16 °C 8.5 °C 1011.7 hPa North 3.5 km/h 1.9 km/h 61% 0 mm WeatherDisplay:10.37 W/m2
12:34 16.2 °C 8.2 °C 1011.4 hPa NNE 7.7 km/h 0.8 km/h 59% 0 mm WeatherDisplay:10.37 W/m2
12:39 15.5 °C 8.2 °C 1011.4 hPa West 3.7 km/h 3.4 km/h 62% 0 mm WeatherDisplay:10.37 W/m2
12:44 14.6 °C 7.4 °C 1011.7 hPa NNW 1.9 km/h   62% 0 mm WeatherDisplay:10.37 W/m2
12:49 15.3 °C 8.3 °C 1011.7 hPa NNE 3.7 km/h 2.3 km/h 63% 0 mm WeatherDisplay:10.37 W/m2
12:54 15.6 °C 7.9 °C 1011.4 hPa South 5.6 km/h 1.8 km/h 60% 0 mm WeatherDisplay:10.37 W/m2
12:59 16 °C 8.9 °C 1011.4 hPa SW 5.6 km/h 2.9 km/h 63% 0 mm WeatherDisplay:10.37 W/m2
13:04 15.8 °C 8 °C 1011.4 hPa North 5.6 km/h 1.9 km/h 60% 0 mm WeatherDisplay:10.37 W/m2
13:09 15.8 °C 8 °C 1011.4 hPa ESE 3.7 km/h 1.1 km/h 60% 0 mm WeatherDisplay:10.37 W/m2
13:14 16.3 °C 7.5 °C 1011.4 hPa WSW 5.6 km/h 2.4 km/h 56% 0 mm WeatherDisplay:10.37 W/m2
13:19 16.4 °C 8.3 °C 1011.4 hPa SW 3.7 km/h 1.4 km/h 59% 0 mm WeatherDisplay:10.37 W/m2
13:24 16.4 °C 8.6 °C 1011.4 hPa SW 1.9 km/h   60% 0 mm WeatherDisplay:10.37 W/m2
13:29 16.8 °C 7.9 °C 1011.7 hPa West 7.7 km/h 0.8 km/h 56% 0 mm WeatherDisplay:10.37 W/m2
13:34 16.1 °C 7.1 °C 1011.7 hPa NW 9.3 km/h 7.2 km/h 55% 0 mm WeatherDisplay:10.37 W/m2
13:39 16.9 °C 7.5 °C 1011.7 hPa North 4.5 km/h 2.6 km/h 54% 0 mm WeatherDisplay:10.37 W/m2
13:44 16.8 °C 7.4 °C 1011.7 hPa SSW 9.3 km/h   54% 0 mm WeatherDisplay:10.37 W/m2
13:49 16.5 °C 7.7 °C 1011.7 hPa SSE 3.7 km/h   56% 0 mm WeatherDisplay:10.37 W/m2
13:54 16 °C 7.7 °C 1011.7 hPa West 6.8 km/h 2.3 km/h 58% 0 mm WeatherDisplay:10.37 W/m2
13:59 15.8 °C 7 °C 1011.7 hPa Calm     56% 0 mm WeatherDisplay:10.37 W/m2
14:04 15.6 °C 8.3 °C 1011.7 hPa Calm     62% 0 mm WeatherDisplay:10.37 W/m2
14:09 16 °C 8 °C 1011.7 hPa Calm     59% 0 mm WeatherDisplay:10.37 W/m2
14:14 16 °C 8.2 °C 1011.7 hPa Calm     60% 0 mm WeatherDisplay:10.37 W/m2
14:19 15.9 °C 7.6 °C 1011.7 hPa Calm     58% 0 mm WeatherDisplay:10.37 W/m2
14:24 15.2 °C 9.1 °C 1011.7 hPa Calm     67% 0 mm WeatherDisplay:10.37 W/m2
14:29 16 °C 8.5 °C 1011.7 hPa Calm     61% 0 mm WeatherDisplay:10.37 W/m2
14:34 15.9 °C 8.1 °C 1011.7 hPa Calm     60% 0 mm WeatherDisplay:10.37 W/m2
14:39 15.6 °C 8.3 °C 1011.7 hPa SSE 3.7 km/h 0.3 km/h 62% 0 mm WeatherDisplay:10.37 W/m2
14:44 16.1 °C 8.1 °C 1011.4 hPa NNW 7.4 km/h   59% 0 mm WeatherDisplay:10.37 W/m2
14:49 16 °C 7.7 °C 1011.4 hPa Calm     58% 0 mm WeatherDisplay:10.37 W/m2
14:54 16.6 °C 8.1 °C 1011.4 hPa Calm     57% 0 mm WeatherDisplay:10.37 W/m2
14:59 17.7 °C 8 °C 1011.4 hPa Calm     53% 0 mm WeatherDisplay:10.37 W/m2
15:04 16.4 °C 9.1 °C 1011.4 hPa Calm     62% 0 mm WeatherDisplay:10.37 W/m2
15:09 17.3 °C 7.6 °C 1011.4 hPa South 3.7 km/h   53% 0 mm WeatherDisplay:10.37 W/m2
15:14 17.1 °C 6.9 °C 1011.4 hPa North 3.7 km/h 2.7 km/h 51% 0 mm WeatherDisplay:10.37 W/m2
15:19 16.9 °C 7.2 °C 1011.4 hPa Calm     53% 0 mm WeatherDisplay:10.37 W/m2
15:24 17.8 °C 6.9 °C 1011.4 hPa South 7.7 km/h 5 km/h 49% 0 mm WeatherDisplay:10.37 W/m2
15:29 17.8 °C 7.5 °C 1011.1 hPa WNW 3.7 km/h   51% 0 mm WeatherDisplay:10.37 W/m2
15:34 17.5 °C 5.7 °C 1011.1 hPa NNE 9.3 km/h 3.4 km/h 46% 0 mm WeatherDisplay:10.37 W/m2
15:39 17.3 °C 7.1 °C 1011.1 hPa NNE 10 km/h 7.7 km/h 51% 0 mm WeatherDisplay:10.37 W/m2
15:44 17.2 °C 5.8 °C 1011.1 hPa East 7.4 km/h 4.2 km/h 47% 0 mm WeatherDisplay:10.37 W/m2
15:49 17.4 °C 6.6 °C 1011.1 hPa SW 3.7 km/h 2.9 km/h 49% 0 mm WeatherDisplay:10.37 W/m2
15:54 17.5 °C 7.6 °C 1011.1 hPa Calm     52% 0 mm WeatherDisplay:10.37 W/m2
15:59 17.5 °C 7.8 °C 1011.1 hPa Calm     53% 0 mm WeatherDisplay:10.37 W/m2
16:04 17.5 °C 6.1 °C 1011.1 hPa South 7.7 km/h 7.2 km/h 47% 0 mm WeatherDisplay:10.37 W/m2
16:09 17.1 °C 8 °C 1010.7 hPa SW 3.7 km/h   55% 0 mm WeatherDisplay:10.37 W/m2
16:14 17.5 °C 7.2 °C 1010.7 hPa SSW 3.7 km/h 0.8 km/h 51% 0 mm WeatherDisplay:10.37 W/m2
16:19 17.4 °C 7.2 °C 1010.7 hPa SSE 5.6 km/h 3.9 km/h 51% 0 mm WeatherDisplay:10.37 W/m2
16:24 17.4 °C 8 °C 1010.7 hPa Calm     54% 0 mm WeatherDisplay:10.37 W/m2
16:29 17.6 °C 7.9 °C 1010.7 hPa SSW 5.6 km/h 5.6 km/h 53% 0 mm WeatherDisplay:10.37 W/m2
16:34 17.2 °C 7.6 °C 1010.7 hPa Calm     53% 0 mm WeatherDisplay:10.37 W/m2
16:39 17.6 °C 8.4 °C 1010.7 hPa Calm     55% 0 mm WeatherDisplay:10.37 W/m2
16:44 17.7 °C 8 °C 1010.7 hPa WNW 3.7 km/h   53% 0 mm WeatherDisplay:10.37 W/m2
16:49 17.8 °C 8.1 °C 1010.7 hPa NNW 5.6 km/h 6.3 km/h 53% 0 mm WeatherDisplay:10.37 W/m2
16:54 17.6 °C 8.4 °C 1010.7 hPa Calm     55% 0 mm WeatherDisplay:10.37 W/m2
16:59 18 °C 8.3 °C 1010.7 hPa West 7.4 km/h 5.1 km/h 53% 0 mm WeatherDisplay:10.37 W/m2
17:04 17.7 °C 8.3 °C 1010.7 hPa North 7.4 km/h 5 km/h 54% 0 mm WeatherDisplay:10.37 W/m2
17:09 17.1 °C 8.5 °C 1011.1 hPa North 7.4 km/h 4.2 km/h 57% 0 mm WeatherDisplay:10.37 W/m2
17:14 17.1 °C 8.5 °C 1011.1 hPa WNW 7.4 km/h 6.4 km/h 57% 0 mm WeatherDisplay:10.37 W/m2
17:19 17.2 °C 8.9 °C 1010.7 hPa Calm     58% 0 mm WeatherDisplay:10.37 W/m2
17:24 17.1 °C 8.8 °C 1010.7 hPa West 3.7 km/h 2.1 km/h 58% 0 mm WeatherDisplay:10.37 W/m2
17:29 16.7 °C 8.4 °C 1010.7 hPa NNW 7.4 km/h 2.7 km/h 58% 0 mm WeatherDisplay:10.37 W/m2
17:34 16.2 °C 8.9 °C 1010.7 hPa NW 7.7 km/h 7.7 km/h 62% 0 mm WeatherDisplay:10.37 W/m2
17:39 15.7 °C 8.7 °C 1010.7 hPa NNE 14.8 km/h 7.7 km/h 63% 0 mm WeatherDisplay:10.37 W/m2
17:44 15.7 °C 8.9 °C 1010.7 hPa NNE 10 km/h 7.2 km/h 64% 0 mm WeatherDisplay:10.37 W/m2
17:49 15.3 °C 8.7 °C 1010.7 hPa NNE 9.3 km/h 8.4 km/h 65% 0 mm WeatherDisplay:10.37 W/m2
17:54 15 °C 8.7 °C 1011.1 hPa NNE 7.4 km/h 6.8 km/h 66% 0 mm WeatherDisplay:10.37 W/m2
17:59 14.9 °C 8.8 °C 1011.1 hPa ESE 7.4 km/h 6 km/h 67% 0 mm WeatherDisplay:10.37 W/m2
18:04 14.8 °C 8.5 °C 1011.1 hPa NE 7.4 km/h 6.9 km/h 66% 0 mm WeatherDisplay:10.37 W/m2
18:09 14.8 °C 8.5 °C 1011.1 hPa South 8.9 km/h 1.9 km/h 66% 0 mm WeatherDisplay:10.37 W/m2
18:14 14.9 °C 7.9 °C 1011.1 hPa ESE 5.6 km/h 3.9 km/h 63% 0 mm WeatherDisplay:10.37 W/m2
18:19 15 °C 8.2 °C 1010.7 hPa SSW 6.8 km/h 3.2 km/h 64% 0 mm WeatherDisplay:10.37 W/m2
18:24 15.2 °C 8.4 °C 1010.7 hPa Calm     64% 0 mm WeatherDisplay:10.37 W/m2
18:29 15.2 °C 9.1 °C 1010.7 hPa Calm     67% 0 mm WeatherDisplay:10.37 W/m2
18:34 15.3 °C 9.2 °C 1010.4 hPa Calm     67% 0 mm WeatherDisplay:10.37 W/m2
18:39 15.2 °C 9.1 °C 1010.4 hPa North 4.5 km/h   67% 0 mm WeatherDisplay:10.37 W/m2
18:44 15.1 °C 9.4 °C 1010.4 hPa Calm     69% 0 mm WeatherDisplay:10.37 W/m2
18:49 15.1 °C 9 °C 1010.4 hPa Calm     67% 0 mm WeatherDisplay:10.37 W/m2
18:54 14.9 °C 9.1 °C 1010.7 hPa East 3.7 km/h 1.9 km/h 68% 0 mm WeatherDisplay:10.37 W/m2
18:59 14.9 °C 9.2 °C 1010.7 hPa Calm     69% 0 mm WeatherDisplay:10.37 W/m2
19:04 14.8 °C 9.2 °C 1010.7 hPa NNE 5.6 km/h 1.3 km/h 69% 0 mm WeatherDisplay:10.37 W/m2
19:09 14.7 °C 8.4 °C 1010.4 hPa West 4.5 km/h 3.9 km/h 66% 0 mm WeatherDisplay:10.37 W/m2
19:14 14.6 °C 8.1 °C 1010.4 hPa Calm     65% 0 mm WeatherDisplay:10.37 W/m2
19:19 14.5 °C 8.4 °C 1010.7 hPa NE 1.9 km/h   67% 0 mm WeatherDisplay:10.37 W/m2
19:24 14.4 °C 8.3 °C 1010.7 hPa North 5.6 km/h 5.3 km/h 67% 0 mm WeatherDisplay:10.37 W/m2
19:29 14.4 °C 7.9 °C 1010.7 hPa North 4.5 km/h 3.4 km/h 65% 0 mm WeatherDisplay:10.37 W/m2
19:34 14.4 °C 8.1 °C 1010.7 hPa ESE 9.3 km/h 3.7 km/h 66% 0 mm WeatherDisplay:10.37 W/m2
19:39 14.4 °C 7.9 °C 1010.7 hPa NNE 7.4 km/h 1.9 km/h 65% 0 mm WeatherDisplay:10.37 W/m2
19:44 14.2 °C 7.9 °C 1011.1 hPa NE 7.4 km/h 1.9 km/h 66% 0 mm WeatherDisplay:10.37 W/m2
19:49 14.1 °C 8.1 °C 1011.1 hPa NE 3.7 km/h   67% 0 mm WeatherDisplay:10.37 W/m2
19:54 13.9 °C 8.3 °C 1011.1 hPa Calm     69% 0 mm WeatherDisplay:10.37 W/m2
19:59 13.6 °C 8.2 °C 1011.1 hPa Calm     70% 0 mm WeatherDisplay:10.37 W/m2
20:04 13.5 °C 7.9 °C 1011.1 hPa Calm     69% 0 mm WeatherDisplay:10.37 W/m2
20:09 13.3 °C 7.9 °C 1011.1 hPa Calm     70% 0 mm WeatherDisplay:10.37 W/m2
20:14 13.1 °C 7.9 °C 1011.1 hPa Calm     71% 0 mm WeatherDisplay:10.37 W/m2
20:19 13 °C 7.9 °C 1011.4 hPa Calm     71% 0 mm WeatherDisplay:10.37 W/m2
20:24 13 °C 8.1 °C 1011.4 hPa Calm     72% 0 mm WeatherDisplay:10.37 W/m2
20:29 12.9 °C 7.9 °C 1011.4 hPa SSW 6.8 km/h 4.3 km/h 72% 0 mm WeatherDisplay:10.37 W/m2
20:34 12.9 °C 7.3 °C 1011.4 hPa WNW 6.8 km/h 5.6 km/h 69% 0 mm WeatherDisplay:10.37 W/m2
20:39 12.8 °C 6.8 °C 1011.4 hPa SSE 13 km/h 7.9 km/h 67% 0 mm WeatherDisplay:10.37 W/m2
20:44 12.6 °C 6.8 °C 1011.4 hPa NNE 11.1 km/h 9.3 km/h 68% 0 mm WeatherDisplay:10.37 W/m2
20:49 12.5 °C 6.6 °C 1011.4 hPa WSW 5.6 km/h 4.8 km/h 67% 0 mm WeatherDisplay:10.37 W/m2
20:54 12.2 °C 6.9 °C 1011.1 hPa Calm     70% 0 mm WeatherDisplay:10.37 W/m2
20:59 12.1 °C 7.4 °C 1011.1 hPa ESE 1.9 km/h   73% 0 mm WeatherDisplay:10.37 W/m2
21:04 11.9 °C 7.8 °C 1011.1 hPa Calm     76% 0 mm WeatherDisplay:10.37 W/m2
21:09 11.4 °C 7.3 °C 1011.1 hPa NNW 4.5 km/h 2.3 km/h 76% 0 mm WeatherDisplay:10.37 W/m2
21:14 11.3 °C 7 °C 1011.1 hPa Calm     75% 0 mm WeatherDisplay:10.37 W/m2
21:19 11.1 °C 6.7 °C 1011.1 hPa NNE 7.4 km/h 6.8 km/h 74% 0 mm WeatherDisplay:10.37 W/m2
21:24 11.2 °C 6.3 °C 1011.1 hPa NNE 5.6 km/h 4.7 km/h 72% 0 mm WeatherDisplay:10.37 W/m2
21:29 11.2 °C 6.2 °C 1011.4 hPa North 5.6 km/h 2.7 km/h 71% 0 mm WeatherDisplay:10.37 W/m2
21:34 11.3 °C 6 °C 1011.4 hPa NNE 13.2 km/h 2.4 km/h 70% 0 mm WeatherDisplay:10.37 W/m2
21:39 11.5 °C 6.2 °C 1011.4 hPa NE 9.3 km/h 5.5 km/h 70% 0 mm WeatherDisplay:10.37 W/m2
21:44 11.7 °C 6.2 °C 1011.4 hPa NE 7.4 km/h 2.7 km/h 69% 0 mm WeatherDisplay:10.37 W/m2
21:49 11.7 °C 6.4 °C 1011.4 hPa Calm     70% 0 mm WeatherDisplay:10.37 W/m2
21:54 11.6 °C 6.1 °C 1011.1 hPa ESE 2.4 km/h 0.5 km/h 69% 0 mm WeatherDisplay:10.37 W/m2
21:59 11.6 °C 6.1 °C 1011.1 hPa Calm     69% 0 mm WeatherDisplay:10.37 W/m2
22:04 11.9 °C 6.4 °C 1011.1 hPa SE 7.4 km/h 1.4 km/h 69% 0 mm WeatherDisplay:10.37 W/m2
22:09 11.8 °C 6.3 °C 1011.4 hPa North 4.5 km/h 1.8 km/h 69% 0 mm WeatherDisplay:10.37 W/m2
22:14 11.9 °C 6.4 °C 1011.4 hPa SW 4.5 km/h 1 km/h 69% 0 mm WeatherDisplay:10.37 W/m2
22:19 11.8 °C 6.5 °C 1011.4 hPa Calm     70% 0 mm WeatherDisplay:10.37 W/m2
22:24 11.8 °C 6.7 °C 1011.4 hPa Calm     71% 0 mm WeatherDisplay:10.37 W/m2
22:29 11.8 °C 6.3 °C 1011.4 hPa SE 3.7 km/h 1.4 km/h 69% 0 mm WeatherDisplay:10.37 W/m2
22:34 11.9 °C 5.9 °C 1011.4 hPa ESE 6.8 km/h 3.2 km/h 67% 0 mm WeatherDisplay:10.37 W/m2
22:39 12 °C 6.1 °C 1011.4 hPa NNE 5.6 km/h 2.6 km/h 67% 0 mm WeatherDisplay:10.37 W/m2
22:44 12 °C 6.1 °C 1011.1 hPa Calm     67% 0 mm WeatherDisplay:10.37 W/m2
22:49 12 °C 5.8 °C 1011.1 hPa NNE 5.6 km/h 3.7 km/h 66% 0 mm WeatherDisplay:10.37 W/m2
22:54 12.1 °C 5.9 °C 1011.4 hPa NNE 6.8 km/h 3.5 km/h 66% 0 mm WeatherDisplay:10.37 W/m2
22:59 12.1 °C 5.9 °C 1011.4 hPa West 4.5 km/h 3.5 km/h 66% 0 mm WeatherDisplay:10.37 W/m2
23:04 12.1 °C 5.9 °C 1011.4 hPa North 5.6 km/h 4 km/h 66% 0 mm WeatherDisplay:10.37 W/m2
23:09 12.1 °C 5.9 °C 1011.4 hPa North 3.7 km/h 2.6 km/h 66% 0 mm WeatherDisplay:10.37 W/m2
23:14 12 °C 6.3 °C 1011.4 hPa Calm     68% 0 mm WeatherDisplay:10.37 W/m2
23:19 11.9 °C 5.9 °C 1011.1 hPa NE 3.7 km/h 2.1 km/h 67% 0 mm WeatherDisplay:10.37 W/m2
23:24 11.8 °C 6.1 °C 1011.1 hPa Calm     68% 0 mm WeatherDisplay:10.37 W/m2
23:29 11.7 °C 6.4 °C 1011.1 hPa NNE 5.6 km/h 0.3 km/h 70% 0 mm WeatherDisplay:10.37 W/m2
23:34 11.6 °C 6.1 °C 1011.4 hPa Calm     69% 0 mm WeatherDisplay:10.37 W/m2
23:39 11.6 °C 6.1 °C 1011.4 hPa West 3.7 km/h 0.3 km/h 69% 0 mm WeatherDisplay:10.37 W/m2
23:44 11.5 °C 6 °C 1011.1 hPa Calm     69% 0 mm WeatherDisplay:10.37 W/m2
23:49 11.5 °C 6.2 °C 1011.1 hPa Calm     70% 0 mm WeatherDisplay:10.37 W/m2
23:54 11.5 °C 6 °C 1011.1 hPa Calm     69% 0 mm WeatherDisplay:10.37 W/m2
23:59 11.4 °C 6.7 °C 1011.1 hPa Calm     73% 0 mm WeatherDisplay:10.37 W/m2
Cohasset, California, USA
Compliments of Weather Underground - 2.25 mb